Aviation Digital Data Service (ADDS)

Output produced by METARs form (1644 UTC 20 July 2017)
found at http://aviationweather.gov/adds/metars/
 
KCAR 201120Z 2012/2112 VRB03KT P6SM FEW200